Time;durP1;ratioP1;P1;durP2;ratioP2;P2;SDS_P1;SDS_P2;PMS_P1;PMS_P2;Temp;Humidity;BMP_temperature;BMP_pressure;BME280_temperature;BME280_humidity;BME280_pressure;Samples;Min_cycle;Max_cycle;Signal;HPM_P1;HPM_P2
2023/04/11 00:06:16;;;;;;;23.60;14.70;;;;;;;9.57;69.38;99182.20;220032;193;666212;-68
2023/04/11 00:10:56;;;;;;;21.00;14.90;;;;;;;9.52;69.11;99187.75;223519;185;136150;-67
2023/04/11 00:16:02;;;;;;;22.70;16.10;;;;;;;9.42;68.98;99182.85;223538;182;145365;-69
2023/04/11 00:21:10;;;;;;;23.60;16.60;;;;;;;9.36;68.76;99179.11;221252;183;138982;-66
2023/04/11 00:26:17;;;;;;;22.90;17.10;;;;;;;9.18;68.71;99168.75;221329;183;137461;-66
2023/04/11 00:31:24;;;;;;;21.70;16.60;;;;;;;9.02;68.89;99166.42;221132;183;144050;-67
2023/04/11 00:36:55;;;;;;;22.30;16.30;;;;;;;8.88;68.96;99160.98;223786;183;138852;-65
2023/04/11 00:43:14;;;;;;;20.40;15.20;;;;;;;8.76;68.92;99166.38;218251;193;2689853;-67
2023/04/11 00:54:31;;;;;;;20.10;14.70;;;;;;;8.59;68.99;99147.50;222785;188;144123;-64
2023/04/11 00:59:52;;;;;;;20.70;15.10;;;;;;;8.50;69.31;99139.45;223547;185;139054;-68
2023/04/11 01:05:24;;;;;;;;;;;;;;;;;;;;;
2023/04/11 01:10:31;;;;;;;21.90;15.20;;;;;;;8.52;70.32;99125.19;223660;183;143699;-63
2023/04/11 01:16:48;;;;;;;;;;;;;;;;;;;;;
2023/04/11 01:23:01;;;;;;;16.80;12.40;;;;;;;8.45;71.02;99112.67;223657;220;127076;-64
2023/04/11 01:28:22;;;;;;;17.10;12.70;;;;;;;8.40;71.10;99114.00;224049;217;145386;-64
2023/04/11 01:33:43;;;;;;;17.30;12.70;;;;;;;8.42;70.88;99111.23;223973;184;138870;-65
2023/04/11 01:38:52;;;;;;;17.20;12.40;;;;;;;8.46;70.75;99103.59;223723;184;137232;-63
2023/04/11 01:44:13;;;;;;;17.10;12.00;;;;;;;8.47;70.56;99095.77;223688;185;145880;-66
2023/04/11 01:49:33;;;;;;;15.40;12.10;;;;;;;8.45;70.09;99089.49;223613;185;140411;-66
2023/04/11 02:02:12;;;;;;;20.10;12.90;;;;;;;8.09;69.58;99084.42;223790;185;145476;-62
2023/04/11 02:07:04;;;;;;;30.30;11.60;;;;;;;7.90;69.63;99078.73;223548;184;139285;-65
2023/04/11 02:12:43;;;;;;;16.60;11.30;;;;;;;7.82;69.80;99068.66;223586;185;136526;-62
2023/04/11 02:17:59;;;;;;;27.90;10.30;;;;;;;7.75;69.91;99056.52;223492;184;146906;-62
2023/04/11 02:23:11;;;;;;;20.20;9.40;;;;;;;7.70;69.98;99061.14;223600;185;138406;-62
2023/04/11 02:28:18;;;;;;;12.10;9.80;;;;;;;7.57;69.82;99060.02;223600;185;137374;-64
2023/04/11 02:33:25;;;;;;;14.90;10.20;;;;;;;7.60;69.74;99059.89;223533;185;145142;-63
2023/04/11 02:42:52;;;;;;;14.40;10.40;;;;;;;7.66;69.58;99047.06;219944;193;665826;-64
2023/04/11 02:47:57;;;;;;;143.90;89.70;;;;;;;7.58;70.07;99044.06;223804;184;137062;-65
2023/04/11 02:53:02;;;;;;;65.80;34.80;;;;;;;7.54;69.90;99036.86;223690;184;145494;-65
2023/04/11 02:58:06;;;;;;;31.60;21.10;;;;;;;7.43;70.00;99036.20;223780;184;138517;-64
2023/04/11 03:03:16;;;;;;;20.80;10.10;;;;;;;7.40;70.13;99031.77;223779;182;136109;-63
2023/04/11 03:08:21;;;;;;;;;;;;;;;7.31;70.01;99030.63;223907;183;143493;-63
2023/04/11 03:13:28;;;;;;;11.30;8.60;;;;;;;7.14;70.08;99026.84;223880;182;138857;-65
2023/04/11 03:18:32;;;;;;;13.70;8.60;;;;;;;7.16;70.34;99024.97;223864;182;136831;-65
2023/04/11 03:23:40;;;;;;;12.20;8.10;;;;;;;7.28;70.01;99016.08;223860;183;143563;-65
2023/04/11 03:28:45;;;;;;;10.00;7.70;;;;;;;7.28;69.67;99009.95;223854;184;140050;-64
2023/04/11 03:33:54;;;;;;;36.00;27.00;;;;;;;7.21;69.95;99008.70;223890;183;137087;-66
2023/04/11 03:42:51;;;;;;;8.70;6.50;;;;;;;7.24;69.34;99007.47;221636;194;666965;-81
2023/04/11 03:47:57;;;;;;;9.50;7.20;;;;;;;7.17;69.19;99008.36;223186;188;135491;-82
2023/04/11 03:53:06;;;;;;;10.60;7.40;;;;;;;7.05;69.21;99005.20;223526;184;143421;-81
2023/04/11 03:58:10;;;;;;;13.10;9.50;;;;;;;6.98;69.33;98990.05;223658;184;139221;-80
2023/04/11 04:03:14;;;;;;;12.10;9.40;;;;;;;6.99;69.52;98988.23;223672;185;136138;-82
2023/04/11 04:08:19;;;;;;;13.80;9.70;;;;;;;6.92;69.11;98984.70;223627;185;143364;-81
2023/04/11 04:13:26;;;;;;;15.30;9.50;;;;;;;6.86;68.77;98984.96;223643;185;138151;-81
2023/04/11 04:18:50;;;;;;;20.30;10.50;;;;;;;6.79;68.78;98990.26;223631;185;136348;-81
2023/04/11 04:23:55;;;;;;;30.50;21.50;;;;;;;6.75;68.92;98995.36;223568;184;143984;-79
2023/04/11 04:29:05;;;;;;;20.20;13.30;;;;;;;6.79;69.37;98998.54;223745;184;139012;-81
2023/04/11 04:34:23;;;;;;;13.80;9.20;;;;;;;6.70;68.96;99001.07;223786;185;136178;-80
2023/04/11 04:39:28;;;;;;;12.10;9.10;;;;;;;6.64;69.42;98992.36;223725;184;145813;-80
2023/04/11 04:44:33;;;;;;;12.50;8.90;;;;;;;6.63;69.84;98989.04;223716;183;138228;-79
2023/04/11 04:49:40;;;;;;;12.30;8.30;;;;;;;6.66;70.31;98985.41;223705;184;136707;-77
2023/04/11 04:54:43;;;;;;;14.70;9.70;;;;;;;6.71;70.39;98984.66;223270;184;145284;-77
2023/04/11 04:59:47;;;;;;;13.10;9.50;;;;;;;6.79;70.57;98978.59;223503;184;138341;-76
2023/04/11 05:04:52;;;;;;;13.40;8.70;;;;;;;6.96;70.52;98967.73;223705;183;136415;-78
2023/04/11 05:09:57;;;;;;;13.60;9.90;;;;;;;7.05;70.30;98956.37;220079;184;145234;-80
2023/04/11 05:15:01;;;;;;;15.50;10.80;;;;;;;7.07;69.86;98949.93;221055;184;140887;-79
2023/04/11 05:20:07;;;;;;;21.00;9.90;;;;;;;7.06;69.71;98947.82;223688;184;136153;-79
2023/04/11 05:25:11;;;;;;;12.10;9.20;;;;;;;7.02;69.78;98939.91;223791;184;145167;-79
2023/04/11 05:30:15;;;;;;;10.80;8.90;;;;;;;7.01;69.90;98946.33;223785;184;138525;-79
2023/04/11 05:35:20;;;;;;;11.70;8.40;;;;;;;7.01;69.91;98946.35;223646;184;136150;-79
2023/04/11 05:40:28;;;;;;;11.30;8.60;;;;;;;6.97;70.27;98937.34;223685;184;145080;-79
2023/04/11 05:45:32;;;;;;;10.50;8.00;;;;;;;7.02;70.75;98930.41;223622;184;138956;-79
2023/04/11 05:50:35;;;;;;;11.60;8.30;;;;;;;7.15;70.94;98924.10;223626;185;137288;-79
2023/04/11 05:55:39;;;;;;;14.40;8.00;;;;;;;7.33;70.91;98908.73;223688;184;145532;-79
2023/04/11 06:00:44;;;;;;;14.10;9.70;;;;;;;7.37;70.69;98912.94;223741;184;138464;-78
2023/04/11 06:05:48;;;;;;;10.80;7.80;;;;;;;7.42;70.93;98909.88;221851;183;136315;-75
2023/04/11 06:10:51;;;;;;;16.80;12.40;;;;;;;7.50;71.25;98900.09;219467;183;145716;-75
2023/04/11 06:15:55;;;;;;;25.60;17.30;;;;;;;7.66;71.55;98890.28;222740;184;138350;-74
2023/04/11 06:20:58;;;;;;;29.20;17.30;;;;;;;7.82;71.08;98883.57;223577;184;136680;-74
2023/04/11 06:26:02;;;;;;;23.80;14.20;;;;;;;7.89;70.91;98868.19;221174;184;146874;-75
2023/04/11 06:31:08;;;;;;;23.20;14.80;;;;;;;7.98;70.87;98863.64;223705;184;138508;-74
2023/04/11 06:36:11;;;;;;;26.30;16.90;;;;;;;8.09;70.75;98859.01;223608;184;136682;-76
2023/04/11 06:41:14;;;;;;;21.50;14.60;;;;;;;8.23;70.76;98853.60;222039;184;145247;-75
2023/04/11 06:46:18;;;;;;;16.10;11.70;;;;;;;8.34;70.58;98847.36;223645;184;138040;-79
2023/04/11 06:51:21;;;;;;;16.70;11.20;;;;;;;8.41;70.55;98845.39;223629;184;136734;-75
2023/04/11 06:56:25;;;;;;;15.90;11.20;;;;;;;8.48;70.38;98847.98;222853;184;145340;-77
2023/04/11 07:01:34;;;;;;;18.60;12.90;;;;;;;8.60;70.51;98856.54;223527;184;138927;-76
2023/04/11 07:06:38;;;;;;;18.60;12.30;;;;;;;8.74;70.69;98847.91;223741;184;137634;-76
2023/04/11 07:11:41;;;;;;;21.80;12.20;;;;;;;8.92;70.99;98839.83;222563;184;145641;-76
2023/04/11 07:16:44;;;;;;;25.10;14.00;;;;;;;9.21;70.87;98831.58;222056;183;138280;-77
2023/04/11 07:21:48;;;;;;;18.50;11.80;;;;;;;9.48;70.76;98825.49;223753;184;140858;-76
2023/04/11 07:26:53;;;;;;;11.40;7.70;;;;;;;9.72;70.38;98818.55;223772;184;145303;-75
2023/04/11 07:31:56;;;;;;;13.60;8.60;;;;;;;9.92;70.09;98816.91;223802;184;138468;-75
2023/04/11 07:36:59;;;;;;;12.10;8.30;;;;;;;10.09;69.90;98802.52;223716;183;136373;-75
2023/04/11 07:42:03;;;;;;;12.10;7.80;;;;;;;10.37;69.77;98805.59;223776;182;147441;-75
2023/04/11 07:47:07;;;;;;;13.90;8.30;;;;;;;10.66;69.54;98795.73;223807;183;138359;-76
2023/04/11 07:52:10;;;;;;;11.20;7.80;;;;;;;10.93;69.19;98788.89;223916;182;136889;-75
2023/04/11 07:57:16;;;;;;;15.80;8.80;;;;;;;11.21;68.32;98778.83;223728;183;145614;-75
2023/04/11 08:02:19;;;;;;;17.10;8.40;;;;;;;11.42;67.73;98764.77;223839;183;139105;-75
2023/04/11 08:07:23;;;;;;;20.10;9.40;;;;;;;11.66;67.68;98764.02;223796;183;136349;-75
2023/04/11 08:12:26;;;;;;;19.70;10.00;;;;;;;11.95;66.85;98759.39;223866;183;145883;-75
2023/04/11 08:17:36;;;;;;;17.00;9.30;;;;;;;12.16;65.91;98749.92;223901;182;138547;-75
2023/04/11 08:22:43;;;;;;;22.00;9.90;;;;;;;12.33;65.83;98736.52;223346;182;136397;-76
2023/04/11 08:27:47;;;;;;;21.80;9.80;;;;;;;12.52;65.68;98733.41;223836;182;145240;-75
2023/04/11 08:32:50;;;;;;;17.50;9.40;;;;;;;12.69;65.63;98723.75;224009;182;138615;-75
2023/04/11 08:37:53;;;;;;;22.80;10.80;;;;;;;12.74;65.19;98710.50;223938;182;136465;-75
2023/04/11 08:42:59;;;;;;;23.60;11.40;;;;;;;12.85;65.14;98701.51;223814;182;145109;-75
2023/04/11 08:48:02;;;;;;;15.50;8.20;;;;;;;13.03;64.38;98689.17;223891;182;138905;-76
2023/04/11 08:53:07;;;;;;;17.70;9.50;;;;;;;13.22;63.92;98669.05;223879;182;137116;-77
2023/04/11 08:58:10;;;;;;;15.90;9.90;;;;;;;13.34;63.26;98650.67;223921;182;145177;-75
2023/04/11 09:03:15;;;;;;;15.80;8.90;;;;;;;13.39;63.45;98647.98;223314;182;139256;-75
2023/04/11 09:08:19;;;;;;;16.30;8.00;;;;;;;13.49;63.74;98636.29;223884;182;136613;-75
2023/04/11 09:13:24;;;;;;;14.00;8.20;;;;;;;13.66;63.00;98626.73;223229;182;145572;-75
2023/04/11 09:18:34;;;;;;;;;;;;;;;13.86;62.90;98610.78;221845;182;139328;-76
2023/04/11 09:23:39;;;;;;;102.90;79.30;;;;;;;14.09;62.97;98600.33;223724;183;129624;-77
2023/04/11 09:28:52;;;;;;;15.20;9.10;;;;;;;14.30;63.51;98600.21;222970;182;145503;-76
2023/04/11 09:33:58;;;;;;;10.60;6.30;;;;;;;14.41;62.64;98591.77;223785;182;138613;-76
2023/04/11 09:39:18;;;;;;;8.80;5.60;;;;;;;14.52;61.78;98574.08;223910;182;137081;-76
2023/04/11 09:44:37;;;;;;;7.80;5.50;;;;;;;14.62;61.37;98570.67;223840;183;145085;-77
2023/04/11 09:49:42;;;;;;;10.80;5.70;;;;;;;14.70;60.92;98563.21;223856;182;138211;-76
2023/04/11 09:54:48;;;;;;;8.30;5.60;;;;;;;14.77;60.72;98555.13;223691;182;136630;-77
2023/04/11 09:59:52;;;;;;;8.30;5.60;;;;;;;14.87;60.73;98548.53;223873;182;145349;-76
2023/04/11 10:04:59;;;;;;;10.40;8.50;;;;;;;14.95;60.75;98539.14;222238;182;138336;-78
2023/04/11 10:10:03;;;;;;;26.00;18.50;;;;;;;15.13;60.95;98520.52;223746;182;136573;-75
2023/04/11 10:15:07;;;;;;;7.70;4.90;;;;;;;15.40;59.95;98507.35;223798;182;145137;-75
2023/04/11 10:20:38;;;;;;;8.60;4.70;;;;;;;15.61;58.94;98495.42;222531;183;138763;-77
2023/04/11 10:25:54;;;;;;;6.20;3.60;;;;;;;15.76;57.78;98488.88;222044;182;137342;-78
2023/04/11 10:31:02;;;;;;;10.60;4.60;;;;;;;16.06;56.18;98480.20;219217;182;146297;-77
2023/04/11 10:36:11;;;;;;;6.80;4.40;;;;;;;16.28;54.64;98475.28;223622;182;139053;-70
2023/04/11 10:41:30;;;;;;;5.80;4.10;;;;;;;16.31;54.18;98465.64;223664;182;138482;-75
2023/04/11 10:46:46;;;;;;;5.10;3.50;;;;;;;16.25;53.08;98457.82;223759;182;145432;-75
2023/04/11 10:51:49;;;;;;;;;;;;;;;16.43;53.95;98455.59;223727;182;139289;-74
2023/04/11 10:56:53;;;;;;;4.00;3.10;;;;;;;16.50;52.72;98457.55;223776;182;129237;-77
2023/04/11 11:01:59;;;;;;;3.80;3.10;;;;;;;16.46;51.62;98452.11;223842;182;146117;-79
2023/04/11 11:07:06;;;;;;;4.70;3.00;;;;;;;16.44;50.99;98451.33;222692;182;138948;-81
2023/04/11 11:12:11;;;;;;;4.10;3.00;;;;;;;16.40;50.07;98445.28;219441;183;136699;-79
2023/04/11 11:17:16;;;;;;;5.50;3.00;;;;;;;16.38;50.86;98438.94;223810;182;145698;-79
2023/04/11 11:22:26;;;;;;;5.60;3.00;;;;;;;16.39;50.42;98434.18;223797;182;140117;-80
2023/04/11 11:27:30;;;;;;;5.20;2.90;;;;;;;16.47;49.57;98433.54;223842;182;136800;-79
2023/04/11 11:32:33;;;;;;;6.70;3.10;;;;;;;16.50;48.91;98424.07;223674;182;145962;-78
2023/04/11 11:37:37;;;;;;;7.20;3.20;;;;;;;16.62;49.64;98421.92;223740;183;138372;-79
2023/04/11 11:42:42;;;;;;;5.80;2.90;;;;;;;16.80;49.36;98416.94;223722;182;137115;-79
2023/04/11 12:07:09;;;;;;;4.30;3.20;;;;;;;18.05;47.78;98384.83;222828;182;145213;-79
2023/04/11 12:12:16;;;;;;;5.50;3.10;;;;;;;18.51;46.76;98375.58;223719;182;138612;-91
2023/04/11 12:17:22;;;;;;;61.20;46.90;;;;;;;18.85;46.35;98364.78;218939;182;136572;-83
2023/04/11 12:22:30;;;;;;;3.60;3.20;;;;;;;19.04;44.87;98358.39;220874;183;147880;-74
2023/04/11 12:27:38;;;;;;;6.40;4.70;;;;;;;19.32;45.78;98360.29;221152;182;138677;-73
2023/04/11 12:32:44;;;;;;;8.50;5.20;;;;;;;19.57;43.60;98354.88;223638;182;136605;-73
2023/04/11 12:37:51;;;;;;;5.20;3.70;;;;;;;19.85;45.91;98344.83;223725;183;147021;-74
2023/04/11 12:43:07;;;;;;;9.00;5.60;;;;;;;20.14;42.11;98337.08;223643;208;138967;-72
2023/04/11 12:48:13;;;;;;;4.20;2.90;;;;;;;20.35;43.00;98325.02;223720;182;137737;-73
2023/04/11 12:53:20;;;;;;;7.00;3.00;;;;;;;20.58;41.36;98321.50;223613;181;147632;-74
2023/04/11 12:58:31;;;;;;;3.50;3.00;;;;;;;20.83;39.75;98315.76;223654;183;138417;-74
2023/04/11 13:03:37;;;;;;;3.90;2.90;;;;;;;20.96;40.72;98310.78;223618;182;136451;-73
2023/04/11 13:08:45;;;;;;;4.70;3.00;;;;;;;20.88;39.85;98302.81;222755;183;148586;-73
2023/04/11 13:13:53;;;;;;;3.80;3.20;;;;;;;20.62;41.21;98294.41;221996;182;140090;-73
2023/04/11 13:19:03;;;;;;;4.60;3.80;;;;;;;20.47;42.27;98284.09;222819;182;136657;-73
2023/04/11 13:24:19;;;;;;;6.20;3.50;;;;;;;20.52;42.91;98280.16;223667;183;147257;-73
2023/04/11 13:29:25;;;;;;;4.50;3.20;;;;;;;20.49;41.47;98273.83;222045;182;139704;-74
2023/04/11 13:34:39;;;;;;;187.40;145.80;;;;;;;20.27;41.77;98273.51;223676;188;136944;-71
2023/04/11 13:39:44;;;;;;;9.30;6.60;;;;;;;20.41;42.63;98258.88;219984;183;146403;-73
2023/04/11 13:44:48;;;;;;;8.00;5.00;;;;;;;20.72;41.66;98252.78;222271;182;139529;-71
2023/04/11 13:49:53;;;;;;;7.90;5.60;;;;;;;20.63;41.67;98245.60;223537;189;136490;-70
2023/04/11 13:54:57;;;;;;;6.60;4.20;;;;;;;20.50;42.10;98242.94;223637;181;148746;-79
2023/04/11 14:00:05;;;;;;;4.80;3.70;;;;;;;20.17;41.65;98234.14;223073;183;140170;-79
2023/04/11 14:05:13;;;;;;;8.70;4.30;;;;;;;19.86;41.98;98229.73;219422;182;139193;-82
2023/04/11 14:10:16;;;;;;;4.50;4.00;;;;;;;19.80;42.63;98222.44;222282;185;146970;-80
2023/04/11 14:15:20;;;;;;;4.50;3.70;;;;;;;19.84;42.30;98217.11;223488;205;138694;-80
2023/04/11 14:20:24;;;;;;;52.70;45.30;;;;;;;19.74;42.39;98209.70;223555;183;137598;-80
2023/04/11 14:25:28;;;;;;;6.00;5.20;;;;;;;19.54;42.58;98208.28;221261;182;147244;-80
2023/04/11 14:30:32;;;;;;;6.80;4.30;;;;;;;19.06;42.44;98208.27;222152;183;138931;-79
2023/04/11 14:35:35;;;;;;;5.70;4.00;;;;;;;18.74;43.10;98205.79;220563;183;136846;-80
2023/04/11 14:40:39;;;;;;;5.30;4.00;;;;;;;18.48;43.89;98201.23;218996;194;147923;-81
2023/04/11 14:46:17;;;;;;;7.00;4.10;;;;;;;18.30;44.67;98201.57;223461;183;138458;-78
2023/04/11 14:51:22;;;;;;;7.90;4.70;;;;;;;18.16;45.09;98194.66;223607;182;136446;-80
2023/04/11 14:56:27;;;;;;;6.00;4.50;;;;;;;18.03;45.89;98195.66;222551;183;148789;-78
2023/04/11 15:01:30;;;;;;;7.60;4.60;;;;;;;17.98;46.23;98191.39;223398;182;138916;-78
2023/04/11 15:06:34;;;;;;;6.40;5.10;;;;;;;17.91;46.13;98188.33;219999;183;136995;-80
2023/04/11 15:11:38;;;;;;;6.60;4.80;;;;;;;17.78;46.39;98185.91;218574;182;146788;-79
2023/04/11 15:16:41;;;;;;;7.00;4.90;;;;;;;17.69;46.83;98183.72;221805;216;139310;-81
2023/04/11 15:21:45;;;;;;;8.80;5.20;;;;;;;17.54;46.96;98184.08;219691;183;136490;-81
2023/04/11 15:26:48;;;;;;;307.50;221.90;;;;;;;17.42;47.76;98181.80;219432;183;147653;-76
2023/04/11 15:31:51;;;;;;;11.50;9.30;;;;;;;17.35;47.91;98174.80;222419;183;139204;-79
2023/04/11 15:36:55;;;;;;;9.20;5.70;;;;;;;17.25;48.15;98169.79;223763;182;138815;-81
2023/04/11 15:41:59;;;;;;;6.80;4.80;;;;;;;17.19;48.44;98162.49;223728;183;147104;-80
2023/04/11 15:47:02;;;;;;;10.00;5.70;;;;;;;17.08;48.79;98154.83;223801;183;141504;-83
2023/04/11 15:52:06;;;;;;;7.90;5.50;;;;;;;17.02;48.88;98155.06;223578;182;158762;-82
2023/04/11 15:57:09;;;;;;;10.10;5.10;;;;;;;16.96;49.14;98148.53;221438;182;149193;-82
2023/04/11 16:02:16;;;;;;;7.30;5.10;;;;;;;16.86;49.16;98142.45;223460;193;139573;-83
2023/04/11 16:07:21;;;;;;;7.50;5.20;;;;;;;16.78;49.45;98137.66;223324;185;266648;-82
2023/04/11 16:12:25;;;;;;;;;;;;;;;16.67;49.72;98134.04;219963;182;146902;-83
2023/04/11 16:17:37;;;;;;;8.90;5.80;;;;;;;16.54;49.61;98135.52;223100;183;141183;-80
2023/04/11 16:22:40;;;;;;;7.80;5.30;;;;;;;16.52;49.70;98150.34;223615;216;136626;-82
2023/04/11 16:27:43;;;;;;;11.10;7.60;;;;;;;16.38;49.65;98182.65;223592;183;146877;-78
2023/04/11 16:32:47;;;;;;;14.10;8.90;;;;;;;16.07;51.84;98217.27;223560;183;138998;-76
2023/04/11 16:37:51;;;;;;;170.60;115.60;;;;;;;15.62;52.22;98229.83;223525;183;136905;-75
2023/04/11 16:42:54;;;;;;;14.40;10.30;;;;;;;15.24;53.37;98240.41;222450;182;147402;-76
2023/04/11 16:47:58;;;;;;;17.30;10.30;;;;;;;15.01;54.00;98250.42;223482;182;139530;-76
2023/04/11 16:53:01;;;;;;;13.10;9.00;;;;;;;14.74;55.03;98258.79;221642;216;137287;-78
2023/04/11 16:58:05;;;;;;;7.40;4.00;;;;;;;14.47;55.12;98265.70;223592;216;147198;-78
2023/04/11 17:03:08;;;;;;;4.20;2.70;;;;;;;14.15;54.82;98267.51;222494;182;139191;-78
2023/04/11 17:08:12;;;;;;;20.10;15.30;;;;;;;13.89;54.70;98279.05;223599;183;136530;-77
2023/04/11 17:13:17;;;;;;;6.50;2.50;;;;;;;13.69;55.43;98294.56;223217;182;148138;-78
2023/04/11 17:18:20;;;;;;;4.70;2.80;;;;;;;13.59;55.54;98297.94;223579;183;138413;-79
2023/04/11 17:23:24;;;;;;;3.90;2.70;;;;;;;13.45;56.34;98295.16;223579;183;138722;-79
2023/04/11 17:28:45;;;;;;;5.90;3.50;;;;;;;13.01;58.12;98270.36;219451;182;147430;-80
2023/04/11 17:33:49;;;;;;;4.30;3.10;;;;;;;12.77;58.88;98266.16;218991;216;138387;-79
2023/04/11 17:39:00;;;;;;;5.10;3.70;;;;;;;12.76;59.43;98280.27;217786;183;136804;-81
2023/04/11 17:44:04;;;;;;;5.00;3.50;;;;;;;12.73;59.28;98288.55;221422;183;147636;-80
2023/04/11 17:49:08;;;;;;;6.50;3.90;;;;;;;12.62;59.82;98303.01;223507;183;138743;-82
2023/04/11 18:00:57;;;;;;;6.90;4.70;;;;;;;12.65;61.19;98309.49;223403;182;147500;-80
2023/04/11 18:06:01;;;;;;;7.90;4.80;;;;;;;12.68;60.94;98308.73;223234;182;140039;-79
2023/04/11 18:11:05;;;;;;;7.50;4.90;;;;;;;12.66;60.86;98316.88;222631;204;137182;-79
2023/04/11 18:16:10;;;;;;;6.90;4.90;;;;;;;12.62;60.90;98324.92;221246;193;147237;-78
2023/04/11 18:21:15;;;;;;;127.30;98.10;;;;;;;12.65;60.99;98330.35;222148;183;138382;-79
2023/04/11 18:26:18;;;;;;;8.90;6.80;;;;;;;12.69;61.51;98337.30;223609;184;138393;-78
2023/04/11 18:31:22;;;;;;;9.40;5.60;;;;;;;12.69;61.13;98345.67;221679;182;147762;-67
2023/04/11 18:36:40;;;;;;;8.70;6.00;;;;;;;12.65;60.76;98349.74;223766;215;139334;-64
2023/04/11 18:41:47;;;;;;;8.20;5.20;;;;;;;12.61;60.72;98353.80;223510;184;137294;-68
2023/04/11 18:46:56;;;;;;;7.70;5.80;;;;;;;12.48;60.76;98354.34;223558;213;147175;-65
2023/04/11 18:52:29;;;;;;;7.40;5.20;;;;;;;12.33;61.25;98358.05;223852;185;140668;-65
2023/04/11 18:57:54;;;;;;;8.60;5.80;;;;;;;12.15;61.73;98360.33;223676;183;136632;-66
2023/04/11 19:11:00;;;;;;;7.10;5.40;;;;;;;11.97;62.81;98377.96;223574;185;138513;-66
2023/04/11 19:17:27;;;;;;;7.10;4.60;;;;;;;11.92;62.65;98385.50;223650;188;136721;-66
2023/04/11 19:23:07;;;;;;;6.50;4.40;;;;;;;11.89;62.34;98393.32;223207;187;147121;-67
2023/04/11 19:29:01;;;;;;;9.90;5.70;;;;;;;11.65;62.23;98393.90;223481;216;138424;-66
2023/04/11 19:34:14;;;;;;;8.30;4.60;;;;;;;11.36;62.18;98400.05;223589;184;136881;-66
2023/04/11 19:42:51;;;;;;;10.60;5.60;;;;;;;11.14;62.24;98398.63;221086;192;666380;-78
2023/04/11 19:47:54;;;;;;;9.40;5.00;;;;;;;11.06;62.49;98400.67;223198;184;136557;-75
2023/04/11 19:58:27;;;;;;;8.30;4.90;;;;;;;10.89;62.83;98412.38;223308;185;139745;-65
2023/04/11 20:03:40;;;;;;;5.70;3.00;;;;;;;10.83;62.79;98408.37;223488;185;136560;-65
2023/04/11 20:08:57;;;;;;;6.90;3.40;;;;;;;10.67;62.73;98409.05;223359;185;143990;-65
2023/04/11 20:14:01;;;;;;;3.00;2.00;;;;;;;10.53;62.84;98412.39;223342;185;141002;-67
2023/04/11 20:19:08;;;;;;;1.30;1.20;;;;;;;10.41;62.89;98419.43;223368;185;136848;-67
2023/04/11 20:24:26;;;;;;;2.70;1.40;;;;;;;10.28;63.00;98422.84;223239;219;144215;-64
2023/04/11 20:29:31;;;;;;;2.90;1.60;;;;;;;10.26;63.03;98425.12;223473;186;140450;-66
2023/04/11 20:34:35;;;;;;;1.90;1.40;;;;;;;10.26;63.03;98431.66;223502;185;136450;-65
2023/04/11 20:39:50;;;;;;;2.10;1.40;;;;;;;10.23;63.02;98439.62;221172;185;146853;-67
2023/04/11 22:45:35;;;;;;;7.30;4.00;;;;;;;10.02;66.92;98459.91;220134;191;665744;-67
2023/04/11 22:51:28;;;;;;;6.70;4.00;;;;;;;10.04;66.64;98460.44;220906;186;140521;-66
2023/04/11 22:56:40;;;;;;;6.70;3.50;;;;;;;10.07;66.17;98460.98;222255;187;143492;-64
2023/04/11 23:02:12;;;;;;;5.80;3.80;;;;;;;10.03;65.92;98458.89;223201;184;139196;-66
2023/04/11 23:08:32;;;;;;;4.20;2.50;;;;;;;10.02;65.74;98459.02;223107;181;137077;-66
2023/04/11 23:19:29;;;;;;;3.40;2.40;;;;;;;9.92;65.82;98450.08;223832;213;138255;-66
2023/04/11 23:24:57;;;;;;;4.40;2.40;;;;;;;9.87;65.76;98448.54;223952;182;136356;-64
